• Join FlightAware (Why Join?)
  • Login
  • US Flag 
09:03PM EDT


 

Airport Tracker/Info


-or-


 

Live Flight TrackerFlight Track Log ✈ N604PJ ✈ 02-Dec-2013 ✈ KUNI - KFMY

Flight Track Log - Related Links

Times and Time Zones

All times are in EST time to prevent confusion due to time zone crossing. See the N604PJ flight status page for this flight to view local times or setup timezone preferences in your user account.

Time Position Orientation Groundspeed Altitude Reporting Facility
EST Latitude Longitude Course Direction KTS MPH feet Rate Location/Type
04:01PM 39.1653 -82.2750 174° South 196 226 3,000  Level Indianapolis Center
04:02PM 38.6330 -82.2099 180° South  Level Estimated
04:02PM 39.1083 -82.2567 166° South 209 241 5,500  Level Indianapolis Center
04:03PM 38.5369 -82.1993 175° South  Level FlightAware Approximate
04:03PM 39.0433 -82.2458 173° South 230 265 7,600  Level Indianapolis Center
04:04PM 38.4404 -82.1962 169° South  Level Estimated
04:04PM 38.9592 -82.2500 182° South 252 290 9,900  Level Indianapolis Center
04:05PM 38.3439 -82.1930 175° South  Level Estimated
04:05PM 38.8881 -82.2425 175° South 257 296 12,200  Level Indianapolis Center
04:06PM 38.2479 -82.1804 174° South  Level FlightAware Approximate
04:06PM 38.8142 -82.2356 176° South 265 305 14,000  Level Indianapolis Center
04:07PM 38.7389 -82.2303 177° South 270 311 16,000 1,740 Climbing Indianapolis Center
04:08PM 38.6631 -82.2233 176° South 273 314 17,700 1,620 Climbing Indianapolis Center
04:09PM 38.5867 -82.2150 175° South 276 318 19,400 1,680 Climbing Indianapolis Center
04:10PM 38.4925 -82.2086 177° South 281 323 21,200 1,380 Climbing Indianapolis Center
04:11PM 38.4119 -82.2008 176° South 288 331 22,300 1,080 Climbing Indianapolis Center
04:12PM 38.3286 -82.1936 176° South 298 343 23,500 960 Climbing Indianapolis Center
04:13PM 38.2447 -82.1883 177° South 302 348 24,400 900 Climbing Indianapolis Center
04:14PM 38.1581 -82.1811 176° South 310 357 25,400 960 Climbing Indianapolis Center
04:15PM 38.0567 -82.1722 176° South 310 357 26,500 960 Climbing Indianapolis Center
04:16PM 37.9703 -82.1653 176° South 311 358 27,500 900 Climbing Indianapolis Center
04:17PM 37.8817 -82.1578 176° South 311 358 28,400 840 Climbing Indianapolis Center
04:18PM 37.7969 -82.1506 176° South 310 357 29,300 720 Climbing Indianapolis Center
04:19PM 37.7100 -82.1439 177° South 311 358 29,900 720 Climbing Indianapolis Center
04:21PM 37.6219 -82.1350 175° South 316 364 30,900 720 Climbing Indianapolis Center
04:22PM 37.5208 -82.1278 177° South 312 359 31,500 600 Climbing Indianapolis Center
04:23PM 37.4314 -82.1208 176° South 318 366 32,200 660 Climbing Indianapolis Center
04:24PM 37.3419 -82.1144 177° South 320 368 32,900 600 Climbing Indianapolis Center
04:25PM 37.2536 -82.1067 176° South 318 366 33,500 480 Climbing Indianapolis Center
04:26PM 37.1667 -82.0983 176° South 314 361 34,000 240 Climbing Indianapolis Center
04:27PM 37.0769 -82.0933 177° South 318 366 34,000  Level Indianapolis Center
04:28PM 36.9658 -82.0839 176° South 334 384 34,000  Level Indianapolis Center
04:29PM 36.8672 -82.0775 177° South 347 399 34,000  Level Indianapolis Center
04:30PM 36.7675 -82.0675 175° South 355 409 34,000  Level Indianapolis Center
04:31PM 36.6675 -82.0611 177° South 357 411 34,000  Level Indianapolis Center
04:32PM 36.5664 -82.0517 176° South 361 415 34,000  Level Indianapolis Center
04:33PM 36.4656 -82.0447 177° South 361 415 34,000  Level Indianapolis Center
04:34PM 36.3478 -82.0344 176° South 362 417 34,000  Level Indianapolis Center
04:35PM 36.2458 -82.0256 176° South 365 420 34,000  Level Indianapolis Center
04:36PM 36.1417 -82.0178 177° South 364 419 34,000  Level Atlanta Center
04:37PM 36.0394 -82.0100 176° South 369 425 34,000  Level Atlanta Center
04:38PM 35.9369 -81.9997 175° South 369 425 34,000  Level Atlanta Center
04:39PM 35.8306 -81.9947 178° South 369 425 34,000  Level Atlanta Center
04:40PM 35.7303 -81.9869 176° South 369 425 34,000  Level Atlanta Center
04:41PM 35.6281 -81.9794 177° South 369 425 34,000  Level Atlanta Center
04:42PM 35.5256 -81.9719 177° South 369 425 34,000  Level Atlanta Center
04:43PM 35.4233 -81.9642 176° South 369 425 34,000  Level Atlanta Center
04:44PM 35.3208 -81.9567 177° South 369 425 34,000  Level Atlanta Center
04:45PM 35.2186 -81.9489 176° South 369 425 34,000  Level Atlanta Center
04:46PM 35.1142 -81.9414 177° South 369 425 34,000  Level Atlanta Center
04:47PM 35.0094 -81.9314 176° South 374 430 34,000  Level Atlanta Center
04:48PM 34.9094 -81.9314 180° South 374 430 34,000  Level Atlanta Center
04:49PM 34.8050 -81.9289 179° South 367 422 34,000  Level Atlanta Center
04:50PM 34.7028 -81.9239 178° South 367 422 34,000  Level Atlanta Center
04:51PM 34.5983 -81.9217 179° South 372 428 34,000  Level Atlanta Center
04:52PM 34.4961 -81.9192 179° South 372 428 34,000  Level Atlanta Center
04:53PM 34.3936 -81.9142 178° South 372 428 34,000  Level Atlanta Center
04:54PM 34.2892 -81.9117 179° South 367 422 34,000  Level Atlanta Center
04:55PM 34.1869 -81.9117 180° South 367 422 34,000  Level Atlanta Center
04:56PM 34.0847 -81.9094 179° South 367 422 34,000  Level Atlanta Center
04:57PM 33.9803 -81.9069 179° South 367 422 34,000  Level Atlanta Center
04:58PM 33.8758 -81.9044 179° South 367 422 34,000  Level Atlanta Center
04:59PM 33.7736 -81.9022 179° South 367 422 34,000  Level Atlanta Center
05:00PM 33.6692 -81.8972 178° South 367 422 34,000  Level Atlanta Center
05:01PM 33.5669 -81.8972 180° South 367 422 34,000  Level Atlanta Center
05:02PM 33.4625 -81.8925 178° South 367 422 34,000  Level Atlanta Center
05:03PM 33.3600 -81.8925 180° South 367 422 34,000  Level Atlanta Center
05:04PM 33.2558 -81.8900 179° South 367 422 34,000  Level Atlanta Center
05:05PM 33.1533 -81.8875 179° South 367 422 34,000  Level Atlanta Center
05:06PM 33.0511 -81.8853 179° South 367 422 34,000  Level Atlanta Center
05:07PM 32.9486 -81.8828 179° South 367 422 34,000  Level Atlanta Center
05:09PM 32.7450 -81.8800 179° South 365 420 34,000  Level Jacksonville Center
05:10PM 32.6344 -81.8861 183° South 365 420 34,000  Level Jacksonville Center
05:11PM 32.5447 -81.8994 187° South 370 426 34,000  Level Jacksonville Center
05:12PM 32.4319 -81.9081 184° South 370 426 34,000  Level Jacksonville Center
05:13PM 32.3403 -81.9189 186° South 370 426 34,000  Level Jacksonville Center
05:14PM 32.2275 -81.9300 185° South 370 426 34,000  Level Jacksonville Center
05:15PM 32.1275 -81.9408 185° South 365 420 34,000  Level Jacksonville Center
05:16PM 32.0356 -81.9492 184° South 374 430 34,000  Level Jacksonville Center
05:17PM 31.9272 -81.9625 186° South 369 425 34,000  Level Jacksonville Center
05:18PM 31.8353 -81.9731 186° South 369 425 34,000  Level Jacksonville Center
05:19PM 31.7228 -81.9817 184° South 369 425 34,000  Level Jacksonville Center
05:20PM 31.6225 -81.9922 185° South 369 425 34,000  Level Jacksonville Center
05:21PM 31.5328 -82.0006 185° South 369 425 34,000  Level Jacksonville Center
05:22PM 31.4222 -82.0136 186° South 369 425 34,000  Level Jacksonville Center
05:23PM 31.3181 -82.0244 185° South 383 441 34,000  Level Jacksonville Center
05:24PM 31.2136 -82.0350 185° South 383 441 34,000  Level Jacksonville Center
05:25PM 31.1136 -82.0458 185° South 377 434 34,000  Level Jacksonville Center
05:26PM 31.0133 -82.0539 184° South 377 434 34,000  Level Jacksonville Center
05:27PM 30.9089 -82.0669 186° South 372 428 34,000  Level Jacksonville Center
05:28PM 30.8067 -82.0750 184° South 367 422 34,000  Level Jacksonville Center
05:29PM 30.7044 -82.0856 185° South 367 422 34,000  Level Jacksonville Center
05:30PM 30.6044 -82.0961 185° South 367 422 34,000  Level Jacksonville Center
05:31PM 30.5019 -82.0994 182° South 367 422 34,000  Level Jacksonville Center
05:32PM 30.4019 -82.1122 186° South 367 422 34,000  Level Jacksonville Center
05:33PM 30.3017 -82.1228 185° South 367 422 34,000  Level Jacksonville Center
05:34PM 30.2036 -82.1306 184° South 362 417 34,000  Level Jacksonville Center
05:35PM 30.1014 -82.1219 176° South 362 417 34,000 -240 Level Jacksonville Center
05:36PM 29.9969 -82.1011 170° South 367 422 33,600 -540 Descending Jacksonville Center
05:37PM 29.8903 -82.0828 172° South 372 428 33,000 -300 Descending Jacksonville Center
05:38PM 29.7878 -82.0597 169° South 377 434 33,000  Level Jacksonville Center
05:39PM 29.6936 -82.0392 169° South 377 434 33,000  Level Jacksonville Center
05:40PM 29.5914 -82.0208 171° South 377 434 33,000  Level Jacksonville Center
05:41PM 29.4889 -81.9978 169° South 377 434 33,000  Level Jacksonville Center
05:42PM 29.3886 -81.9797 171° South 371 427 33,000  Level Jacksonville Center
05:43PM 29.2881 -81.9617 171° South 371 427 33,000  Level Jacksonville Center
05:45PM 29.0853 -81.9214 170° South 369 425 33,000  Level Miami Center
05:46PM 28.9881 -81.8978 168° South 369 425 33,000  Level Miami Center
05:47PM 28.8886 -81.8792 171° South 369 425 33,000 -3,000 Level Miami Center
05:48PM 28.7975 -81.8631 171° South 369 425 27,000 -1,800 Descending Miami Center
05:49PM 28.6856 -81.8439 171° South 390 449 29,500 120 Climbing Miami Center
05:50PM 28.5719 -81.8153 168° South 410 472 27,300 -1,260 Descending Miami Center
05:51PM 28.4642 -81.7892 168° South 410 472 27,000 -600 Descending Miami Center
05:52PM 28.3547 -81.7561 165° South 410 472 26,100 -900 Descending Miami Center
05:53PM 28.2453 -81.7231 165° South 410 472 25,300 -900 Descending Miami Center
05:54PM 28.1358 -81.6925 166° South 405 466 24,400 -1,140 Descending Miami Center
05:55PM 28.0322 -81.6714 170° South 400 460 23,100 -1,260 Descending Miami Center
05:56PM 27.9297 -81.6789 184° South 378 435 21,900 -1,200 Descending Miami Center
05:57PM 27.8322 -81.6583 169° South 378 435 20,800 -1,320 Descending Miami Center
05:58PM 27.7247 -81.6350 169° South 363 418 19,300 -1,440 Descending Miami Center
05:59PM 27.6292 -81.6147 169° South 363 418 18,000 -1,200 Descending Miami Center
06:00PM 27.5339 -81.5967 170° South 358 412 17,000 -1,080 Descending Miami Center
06:01PM 27.4406 -81.5742 168° South 348 400 15,900 -1,440 Descending Miami Center
06:02PM 27.3536 -81.5567 170° South 336 387 14,200 -1,800 Descending Miami Center
06:03PM 27.2644 -81.5389 170° South 331 381 12,400 -1,800 Descending Miami Center
06:04PM 27.1775 -81.5189 168° South 331 381 10,600 -1,200 Descending Miami Center
06:05PM 27.0944 -81.4994 168° South 325 374 10,000 -660 Descending Miami Center
06:06PM 27.0261 -81.4850 169° South 320 368 9,300 -960 Descending Miami Center
06:07PM 26.9422 -81.4933 185° South 284 327 8,100 -1,320 Descending Miami Center
06:08PM 26.8842 -81.5492 221° Southwest 263 303 6,700 -1,320 Descending Miami Center
06:09PM 26.8325 -81.6006 222° Southwest 263 303 5,500 -1,200 Descending Miami Center
06:10PM 26.7806 -81.6567 224° Southwest 263 303 4,300 -1,380 Descending Miami Center
06:11PM 26.7242 -81.7194 225° Southwest 263 303 2,800 -1,200 Descending Miami Center
06:12PM 26.6703 -81.7683 219° Southwest 258 297 2,000 -840 Descending Miami Center
06:14PM 26.5833 -81.8500 310° West  Level FlightAware Approximate
06:21PM 26.5866 -81.8633 310° West  Level Estimated
06:22PM 26.5866 -81.8633 310° West  Level Estimated
06:23PM 26.5866 -81.8633 310° West  Level Estimated
06:24PM 26.5866 -81.8633 310° West  Level Estimated